createdAt,value
2019-02-02T00:00:59.386Z,98995.34
2019-02-02T00:03:30.765Z,98990.37
2019-02-02T00:06:01.235Z,98989.97
2019-02-02T00:08:31.920Z,98991.78
2019-02-02T00:11:05.583Z,98988.97
2019-02-02T00:13:36.096Z,98986.52
2019-02-02T00:16:06.828Z,98975.20
2019-02-02T00:18:39.134Z,98973.47
2019-02-02T00:21:10.864Z,98970.11
2019-02-02T00:23:42.470Z,98976.94
2019-02-02T00:26:12.965Z,98981.55
2019-02-02T00:28:43.572Z,98979.85
2019-02-02T00:31:13.982Z,98978.59
2019-02-02T00:33:48.155Z,98983.75
2019-02-02T00:36:21.739Z,98985.02
2019-02-02T00:38:52.576Z,98985.45
2019-02-02T00:41:24.190Z,98993.89
2019-02-02T00:43:54.667Z,98985.91
2019-02-02T00:46:24.995Z,98986.31
2019-02-02T00:48:57.782Z,98988.62
2019-02-02T00:51:28.203Z,98991.85
2019-02-02T00:54:00.244Z,98989.03
2019-02-02T00:56:30.545Z,98992.27
2019-02-02T00:59:01.838Z,99001.34
2019-02-02T01:01:32.258Z,99004.08
2019-02-02T01:04:03.094Z,99000.17
2019-02-02T01:06:33.543Z,98996.06
2019-02-02T01:09:07.127Z,98999.50
2019-02-02T01:11:37.426Z,99000.41
2019-02-02T01:14:08.235Z,99005.92
2019-02-02T01:16:40.302Z,99004.38
2019-02-02T01:19:10.827Z,98997.67
2019-02-02T01:21:41.290Z,99012.81
2019-02-02T01:24:13.374Z,99017.55
2019-02-02T01:26:45.834Z,99024.72
2019-02-02T01:29:17.665Z,99027.71
2019-02-02T01:31:48.327Z,99022.20
2019-02-02T01:34:21.578Z,99022.20
2019-02-02T01:36:53.749Z,99027.36
2019-02-02T01:39:24.148Z,99023.53
2019-02-02T01:41:57.069Z,99028.97
2019-02-02T01:44:29.889Z,99029.77
2019-02-02T01:47:00.306Z,99021.80
2019-02-02T01:49:30.902Z,99013.83
2019-02-02T01:52:01.485Z,99004.53
2019-02-02T01:54:31.959Z,99011.63
2019-02-02T01:57:02.710Z,99015.42
2019-02-02T01:59:32.984Z,99017.86
2019-02-02T02:02:04.229Z,99021.17
2019-02-02T02:04:34.694Z,99023.23
2019-02-02T02:07:08.579Z,99020.31
2019-02-02T02:09:42.667Z,99020.38
2019-02-02T02:12:13.216Z,99009.03
2019-02-02T02:14:46.130Z,99009.03
2019-02-02T02:17:17.072Z,99011.20
2019-02-02T02:19:47.579Z,99010.73
2019-02-02T02:22:17.844Z,99010.73
2019-02-02T02:24:48.156Z,99012.06
2019-02-02T02:27:19.604Z,99009.94
2019-02-02T02:29:50.017Z,99015.77
2019-02-02T02:32:20.690Z,99012.81
2019-02-02T02:34:51.278Z,99001.45
2019-02-02T02:37:21.597Z,99007.45
2019-02-02T02:39:52.559Z,99010.05
2019-02-02T02:42:26.613Z,99015.02
2019-02-02T02:44:59.211Z,99009.11
2019-02-02T02:47:35.324Z,99003.66
2019-02-02T02:50:07.618Z,99012.89
2019-02-02T02:52:38.152Z,99012.45
2019-02-02T02:55:10.395Z,99014.11
2019-02-02T02:57:40.666Z,99018.77
2019-02-02T03:00:17.849Z,99016.75
2019-02-02T03:02:48.354Z,99023.57
2019-02-02T03:05:19.754Z,99021.91
2019-02-02T03:07:52.948Z,99031.22
2019-02-02T03:10:25.321Z,99040.13
2019-02-02T03:12:57.618Z,99048.92
2019-02-02T03:15:28.045Z,99045.18
2019-02-02T03:17:58.392Z,99046.91
2019-02-02T03:20:28.819Z,99057.08
2019-02-02T03:22:59.158Z,99057.01
2019-02-02T03:25:29.837Z,99054.88
2019-02-02T03:28:00.131Z,99058.66
2019-02-02T03:30:30.431Z,99060.87
2019-02-02T03:33:00.750Z,99067.61
2019-02-02T03:35:33.700Z,99068.55
2019-02-02T03:38:09.500Z,99069.39
2019-02-02T03:40:39.811Z,99069.81
2019-02-02T03:43:14.635Z,99068.44
2019-02-02T03:45:44.903Z,99077.20
2019-02-02T03:48:15.282Z,99070.84
2019-02-02T03:50:46.097Z,99063.16
2019-02-02T03:53:18.366Z,99068.60
2019-02-02T03:55:52.115Z,99063.16
2019-02-02T03:58:25.641Z,99071.59
2019-02-02T04:00:56.335Z,99074.95
2019-02-02T04:03:27.032Z,99077.36
2019-02-02T04:05:57.714Z,99085.05
2019-02-02T04:08:28.196Z,99089.42
2019-02-02T04:10:59.944Z,99097.86
2019-02-02T04:13:30.198Z,99103.19
2019-02-02T04:16:01.541Z,99105.59
2019-02-02T04:18:31.870Z,99097.51
2019-02-02T04:21:02.320Z,99103.30
2019-02-02T04:23:32.653Z,99103.19
2019-02-02T04:26:03.159Z,99102.27
2019-02-02T04:28:34.563Z,99103.53
2019-02-02T04:31:10.926Z,99105.94
2019-02-02T04:33:42.344Z,99107.20
2019-02-02T04:36:17.582Z,99103.30
2019-02-02T04:38:47.915Z,99106.26
2019-02-02T04:41:20.341Z,99102.03
2019-02-02T04:43:50.978Z,99094.23
2019-02-02T04:46:23.731Z,99094.23
2019-02-02T04:48:54.249Z,99103.45
2019-02-02T04:51:24.742Z,99104.79
2019-02-02T04:53:57.992Z,99111.02
2019-02-02T04:56:29.802Z,99113.50
2019-02-02T04:59:00.094Z,99117.28
2019-02-02T05:01:30.475Z,99120.72
2019-02-02T05:04:01.046Z,99129.55
2019-02-02T05:06:31.448Z,99130.80
2019-02-02T05:09:02.115Z,99126.55
2019-02-02T05:11:33.471Z,99126.94
2019-02-02T05:14:03.739Z,99128.63
2019-02-02T05:16:35.350Z,99132.81
2019-02-02T05:19:05.671Z,99136.20
2019-02-02T05:21:36.094Z,99136.08
2019-02-02T05:24:06.611Z,99137.78
2019-02-02T05:26:48.727Z,99142.51
2019-02-02T05:29:28.196Z,99136.20
2019-02-02T05:31:58.437Z,99143.77
2019-02-02T05:34:29.171Z,99146.41
2019-02-02T05:36:59.513Z,99143.94
2019-02-02T05:39:30.097Z,99138.89
2019-02-02T05:42:00.560Z,99145.59
2019-02-02T05:44:31.161Z,99145.82
2019-02-02T05:47:02.846Z,99145.82
2019-02-02T05:49:34.234Z,99143.69
2019-02-02T05:52:04.736Z,99147.20
2019-02-02T05:54:35.193Z,99146.30
2019-02-02T05:57:05.486Z,99147.00
2019-02-02T05:59:36.658Z,99144.91
2019-02-02T06:02:08.291Z,99143.64
2019-02-02T06:05:18.990Z,99143.64
2019-02-02T06:07:33.537Z,99137.39
2019-02-02T06:09:58.423Z,99142.95
2019-02-02T06:12:32.892Z,99146.30
2019-02-02T06:15:04.843Z,99148.94
2019-02-02T06:17:35.348Z,99146.86
2019-02-02T06:20:07.331Z,99155.33
2019-02-02T06:22:37.734Z,99155.33
2019-02-02T06:25:09.859Z,99156.20
2019-02-02T06:27:40.195Z,99155.81
2019-02-02T06:30:13.928Z,99154.20
2019-02-02T06:32:44.352Z,99157.70
2019-02-02T06:35:15.629Z,99149.63
2019-02-02T06:37:46.487Z,99149.63
2019-02-02T06:40:16.886Z,99162.41
2019-02-02T06:42:50.029Z,99165.52
2019-02-02T06:45:31.277Z,99168.44
2019-02-02T06:48:01.578Z,99172.70
2019-02-02T06:50:32.372Z,99175.22
2019-02-02T06:53:03.306Z,99177.27
2019-02-02T06:55:33.982Z,99189.10
2019-02-02T06:58:04.907Z,99193.80
2019-02-02T07:00:35.614Z,99191.00
2019-02-02T07:03:06.014Z,99196.09
2019-02-02T07:05:36.614Z,99203.35
2019-02-02T07:08:07.007Z,99200.36
2019-02-02T07:10:44.062Z,99204.93
2019-02-02T07:13:19.007Z,99212.50
2019-02-02T07:15:50.409Z,99218.14
2019-02-02T07:18:20.871Z,99216.09
2019-02-02T07:20:52.011Z,99220.45
2019-02-02T07:23:22.338Z,99220.17
2019-02-02T07:25:53.159Z,99227.47
2019-02-02T07:28:23.491Z,99235.09
2019-02-02T07:30:55.716Z,99229.77
2019-02-02T07:33:26.245Z,99232.02
2019-02-02T07:36:03.710Z,99237.51
2019-02-02T07:38:40.097Z,99240.98
2019-02-02T07:41:10.367Z,99251.99
2019-02-02T07:43:40.674Z,99257.91
2019-02-02T07:46:15.076Z,99258.34
2019-02-02T07:48:44.110Z,99255.82
2019-02-02T07:51:14.686Z,99261.73
2019-02-02T07:53:44.991Z,99260.99
2019-02-02T07:56:15.706Z,99261.94
2019-02-02T07:58:46.548Z,99272.48
2019-02-02T08:01:16.973Z,99274.96
2019-02-02T08:03:50.632Z,99278.28
2019-02-02T08:06:27.095Z,99281.55
2019-02-02T08:09:05.912Z,99287.39
2019-02-02T08:11:38.248Z,99292.44
2019-02-02T08:14:11.353Z,99298.75
2019-02-02T08:16:42.917Z,99295.91
2019-02-02T08:19:13.331Z,99298.95
2019-02-02T08:21:45.627Z,99303.66
2019-02-02T08:24:20.814Z,99309.22
2019-02-02T08:26:51.476Z,99307.17
2019-02-02T08:29:22.106Z,99307.17
2019-02-02T08:31:53.632Z,99317.52
2019-02-02T08:34:23.972Z,99321.43
2019-02-02T08:37:22.563Z,99328.31
2019-02-02T08:39:44.012Z,99332.22
2019-02-02T08:42:14.472Z,99337.27
2019-02-02T08:44:44.866Z,99344.06
2019-02-02T08:47:15.288Z,99348.30
2019-02-02T08:49:45.758Z,99353.81
2019-02-02T08:52:16.450Z,99357.84
2019-02-02T08:54:48.207Z,99366.77
2019-02-02T08:57:18.891Z,99371.58
2019-02-02T08:59:49.246Z,99373.97
2019-02-02T09:02:20.082Z,99387.05
2019-02-02T09:04:50.842Z,99387.73
2019-02-02T09:07:24.431Z,99394.40
2019-02-02T09:09:58.250Z,99393.31
2019-02-02T09:12:30.604Z,99404.77
2019-02-02T09:15:08.074Z,99407.72
2019-02-02T09:17:52.267Z,99410.62
2019-02-02T09:20:26.343Z,99413.98
2019-02-02T09:23:09.818Z,99419.81
2019-02-02T09:25:38.890Z,99417.67
2019-02-02T09:28:12.091Z,99417.02
2019-02-02T09:30:46.887Z,99421.28
2019-02-02T09:33:20.157Z,99425.71
2019-02-02T09:36:01.330Z,99433.62
2019-02-02T09:38:35.210Z,99437.00
2019-02-02T09:41:07.035Z,99436.42
2019-02-02T09:43:42.364Z,99437.94
2019-02-02T09:46:13.649Z,99433.39
2019-02-02T09:48:46.778Z,99440.96
2019-02-02T09:51:17.527Z,99447.02
2019-02-02T09:53:53.357Z,99447.48
2019-02-02T09:56:24.570Z,99450.08
2019-02-02T09:58:55.151Z,99456.80
2019-02-02T10:01:27.870Z,99459.47
2019-02-02T10:03:57.849Z,99458.31
2019-02-02T10:06:31.162Z,99461.55
2019-02-02T10:09:01.498Z,99462.89
2019-02-02T10:11:34.276Z,99463.98
2019-02-02T10:14:07.059Z,99467.93
2019-02-02T10:16:42.156Z,99472.41
2019-02-02T10:19:15.746Z,99473.73
2019-02-02T10:21:46.137Z,99482.53
2019-02-02T10:24:28.769Z,99479.73
2019-02-02T10:27:18.600Z,99476.58
2019-02-02T10:29:56.391Z,99482.67
2019-02-02T10:32:29.825Z,99482.52
2019-02-02T10:35:05.966Z,99489.77
2019-02-02T10:37:36.525Z,99486.56
2019-02-02T10:40:10.197Z,99499.34
2019-02-02T10:42:40.881Z,99499.34
2019-02-02T10:45:21.390Z,99499.66
2019-02-02T10:47:50.452Z,99504.16
2019-02-02T10:50:21.353Z,99505.18
2019-02-02T10:52:54.092Z,99505.18
2019-02-02T10:55:24.822Z,99508.05
2019-02-02T10:57:55.479Z,99504.13
2019-02-02T11:00:30.205Z,99502.56
2019-02-02T11:03:00.724Z,99512.41
2019-02-02T11:05:32.873Z,99513.55
2019-02-02T11:08:08.783Z,99514.13
2019-02-02T11:10:42.021Z,99509.95
2019-02-02T11:13:16.343Z,99509.95
2019-02-02T11:19:12.557Z,99517.41
2019-02-02T11:21:51.503Z,99523.26
2019-02-02T11:24:34.814Z,99523.26
2019-02-02T11:27:15.742Z,99527.78
2019-02-02T11:29:47.537Z,99525.88
2019-02-02T11:32:25.190Z,99527.27
2019-02-02T11:34:58.361Z,99528.17
2019-02-02T11:37:34.725Z,99525.69
2019-02-02T11:40:06.362Z,99528.97
2019-02-02T11:42:36.991Z,99538.54
2019-02-02T11:45:11.369Z,99541.69
2019-02-02T11:47:41.907Z,99538.02
2019-02-02T11:50:15.576Z,99544.98
2019-02-02T11:52:46.051Z,99541.23
2019-02-02T11:55:17.520Z,99552.55
2019-02-02T11:57:50.617Z,99554.52
2019-02-02T12:00:29.087Z,99561.72
2019-02-02T12:03:00.558Z,99560.94
2019-02-02T12:05:31.567Z,99566.96
2019-02-02T12:08:03.717Z,99574.91
2019-02-02T12:10:34.637Z,99570.30
2019-02-02T12:13:07.593Z,99575.21
2019-02-02T12:15:40.462Z,99581.80
2019-02-02T12:18:11.969Z,99589.73
2019-02-02T12:20:43.146Z,99590.83
2019-02-02T12:23:17.452Z,99596.58
2019-02-02T12:25:56.597Z,99596.58
2019-02-02T12:28:28.334Z,99603.64
2019-02-02T12:30:58.665Z,99619.73
2019-02-02T12:33:29.323Z,99622.87
2019-02-02T12:36:00.759Z,99631.67
2019-02-02T12:38:33.592Z,99636.04
2019-02-02T12:41:04.097Z,99638.95
2019-02-02T12:43:35.691Z,99647.41
2019-02-02T12:46:07.542Z,99652.77
2019-02-02T12:48:42.242Z,99662.28
2019-02-02T12:51:16.770Z,99662.28
2019-02-02T12:53:55.905Z,99663.33
2019-02-02T12:56:32.379Z,99663.33
2019-02-02T12:59:12.590Z,99658.36
2019-02-02T13:01:48.025Z,99664.34
2019-02-02T13:04:23.958Z,99667.61
2019-02-02T13:06:56.120Z,99663.60
2019-02-02T13:09:48.652Z,99669.39
2019-02-02T13:12:34.805Z,99667.52
2019-02-02T13:15:05.703Z,99668.52
2019-02-02T13:17:42.869Z,99667.73
2019-02-02T13:20:21.633Z,99665.20
2019-02-02T13:22:56.138Z,99674.03
2019-02-02T13:25:36.895Z,99682.23
2019-02-02T13:28:12.743Z,99681.70
2019-02-02T13:31:02.027Z,99683.45
2019-02-02T13:33:34.455Z,99689.20
2019-02-02T13:36:10.707Z,99693.34
2019-02-02T13:38:58.879Z,99700.78
2019-02-02T13:41:34.356Z,99701.24
2019-02-02T13:44:08.565Z,99702.80
2019-02-02T13:46:46.550Z,99708.55
2019-02-02T13:49:34.942Z,99712.81
2019-02-02T13:52:09.490Z,99716.33
2019-02-02T13:54:52.840Z,99727.56
2019-02-02T13:57:31.379Z,99727.66
2019-02-02T14:00:12.093Z,99728.98
2019-02-02T14:02:44.581Z,99734.45
2019-02-02T14:05:19.870Z,99729.31
2019-02-02T14:08:00.085Z,99743.89
2019-02-02T14:10:32.887Z,99747.53
2019-02-02T14:13:20.778Z,99753.66
2019-02-02T14:15:51.372Z,99755.80
2019-02-02T14:18:30.848Z,99761.95
2019-02-02T14:21:10.085Z,99771.39
2019-02-02T14:23:42.695Z,99775.18
2019-02-02T14:26:14.818Z,99783.09
2019-02-02T14:28:50.058Z,99774.64
2019-02-02T14:31:40.454Z,99778.63
2019-02-02T14:34:06.824Z,99779.69
2019-02-02T14:36:41.618Z,99779.05
2019-02-02T14:39:32.109Z,99784.44
2019-02-02T14:42:06.070Z,99790.09
2019-02-02T14:44:55.489Z,99800.52
2019-02-02T14:47:28.343Z,99802.27
2019-02-02T14:50:18.941Z,99809.58
2019-02-02T14:52:53.728Z,99815.25
2019-02-02T14:55:28.881Z,99815.58
2019-02-02T14:58:02.439Z,99820.00
2019-02-02T15:00:38.799Z,99821.98
2019-02-02T15:03:10.518Z,99832.47
2019-02-02T15:05:53.074Z,99842.26
2019-02-02T15:08:27.254Z,99845.20
2019-02-02T15:11:01.176Z,99858.27
2019-02-02T15:13:50.586Z,99861.28
2019-02-02T15:16:29.792Z,99858.99
2019-02-02T15:19:25.075Z,99871.07
2019-02-02T15:21:54.476Z,99873.11
2019-02-02T15:24:27.930Z,99879.03
2019-02-02T15:27:29.795Z,99882.33
2019-02-02T15:29:49.816Z,99885.19
2019-02-02T15:32:38.043Z,99894.50
2019-02-02T15:35:10.618Z,99900.66
2019-02-02T15:37:47.976Z,99908.55
2019-02-02T15:40:25.155Z,99900.17
2019-02-02T15:42:56.618Z,99913.33
2019-02-02T15:45:36.570Z,99915.64
2019-02-02T15:48:24.849Z,99919.48
2019-02-02T15:51:08.733Z,99927.38
2019-02-02T15:53:50.845Z,99931.81
2019-02-02T15:56:50.571Z,99938.13
2019-02-02T15:59:03.165Z,99946.86
2019-02-02T16:01:35.164Z,99950.64
2019-02-02T16:04:05.632Z,99954.81
2019-02-02T16:06:35.975Z,99961.39
2019-02-02T16:09:09.264Z,99965.39
2019-02-02T16:11:40.976Z,99971.70
2019-02-02T16:14:21.566Z,99981.53
2019-02-02T16:16:59.407Z,99986.83
2019-02-02T16:19:45.200Z,99998.89
2019-02-02T16:22:28.691Z,100004.61
2019-02-02T16:25:11.964Z,100009.59
2019-02-02T16:27:34.519Z,100016.67
2019-02-02T16:30:08.636Z,100021.09
2019-02-02T16:32:41.884Z,100024.78
2019-02-02T16:35:12.610Z,100027.69
2019-02-02T16:37:44.986Z,100033.16
2019-02-02T16:40:18.334Z,100039.50
2019-02-02T16:42:59.322Z,100046.83
2019-02-02T16:45:52.891Z,100050.33
2019-02-02T16:48:30.419Z,100052.12
2019-02-02T16:51:14.828Z,100058.30
2019-02-02T16:53:58.468Z,100063.47
2019-02-02T16:56:46.666Z,100067.39
2019-02-02T16:59:25.224Z,100076.73
2019-02-02T17:02:05.957Z,100084.99
2019-02-02T17:04:38.228Z,100093.50
2019-02-02T17:07:14.971Z,100092.87
2019-02-02T17:09:56.233Z,100107.19
2019-02-02T17:13:24.563Z,100123.56
2019-02-02T17:15:06.133Z,100123.56
2019-02-02T17:17:38.399Z,100127.84
2019-02-02T17:20:15.002Z,100130.44
2019-02-02T17:22:45.694Z,100131.80
2019-02-02T17:25:17.890Z,100139.36
2019-02-02T17:27:56.897Z,100151.97
2019-02-02T17:30:32.647Z,100151.97
2019-02-02T17:33:26.667Z,100154.36
2019-02-02T17:36:01.800Z,100156.18
2019-02-02T17:38:41.027Z,100161.15
2019-02-02T17:41:12.668Z,100167.45
2019-02-02T17:43:45.382Z,100171.41
2019-02-02T17:46:15.866Z,100177.22
2019-02-02T17:48:46.634Z,100181.50
2019-02-02T17:51:17.382Z,100190.02
2019-02-02T17:53:47.747Z,100190.02
2019-02-02T17:56:20.294Z,100197.08
2019-02-02T17:59:00.438Z,100199.33
2019-02-02T18:01:40.877Z,100204.37
2019-02-02T18:04:39.172Z,100209.41
2019-02-02T18:07:19.815Z,100213.06
2019-02-02T18:09:57.300Z,100231.17
2019-02-02T18:12:37.982Z,100238.66
2019-02-02T18:15:18.301Z,100246.23
2019-02-02T18:17:52.778Z,100261.18
2019-02-02T18:20:44.203Z,100266.22
2019-02-02T18:23:10.992Z,100272.13
2019-02-02T18:25:42.990Z,100274.71
2019-02-02T18:28:13.537Z,100277.42
2019-02-02T18:30:45.313Z,100275.95
2019-02-02T18:33:17.006Z,100285.73
2019-02-02T18:35:59.306Z,100289.70
2019-02-02T18:38:37.237Z,100302.39
2019-02-02T18:41:15.928Z,100311.41
2019-02-02T18:43:52.189Z,100320.41
2019-02-02T18:46:28.368Z,100326.14
2019-02-02T18:49:27.869Z,100331.83
2019-02-02T18:52:22.345Z,100346.77
2019-02-02T18:54:55.923Z,100346.77
2019-02-02T18:57:37.952Z,100343.29
2019-02-02T19:00:14.317Z,100349.98
2019-02-02T19:02:49.261Z,100346.20
2019-02-02T19:05:29.256Z,100351.23
2019-02-02T19:08:03.672Z,100353.45
2019-02-02T19:10:48.857Z,100352.20
2019-02-02T19:14:09.738Z,100354.25
2019-02-02T19:16:31.193Z,100352.50
2019-02-02T19:19:09.458Z,100366.88
2019-02-02T19:21:57.089Z,100367.33
2019-02-02T19:24:37.414Z,100369.58
2019-02-02T19:27:16.856Z,100381.01
2019-02-02T19:30:01.580Z,100382.38
2019-02-02T19:32:35.659Z,100391.67
2019-02-02T19:35:16.205Z,100396.33
2019-02-02T19:37:42.925Z,100396.72
2019-02-02T19:40:14.208Z,100401.45
2019-02-02T19:42:44.893Z,100400.20
2019-02-02T19:45:27.665Z,100403.13
2019-02-02T19:48:07.635Z,100413.30
2019-02-02T19:50:57.008Z,100419.12
2019-02-02T19:53:42.133Z,100430.97
2019-02-02T19:56:19.454Z,100436.97
2019-02-02T19:58:51.755Z,100442.81
2019-02-02T20:01:22.324Z,100451.34
2019-02-02T20:03:52.988Z,100460.67
2019-02-02T20:06:27.777Z,100460.86
2019-02-02T20:09:03.623Z,100465.03
2019-02-02T20:11:35.702Z,100469.69
2019-02-02T20:14:06.568Z,100470.15
2019-02-02T20:16:37.606Z,100474.32
2019-02-02T20:19:11.143Z,100482.77
2019-02-02T20:21:57.354Z,100484.83
2019-02-02T20:24:13.977Z,100487.93
2019-02-02T20:26:44.339Z,100496.38
2019-02-02T20:29:15.162Z,100499.67
2019-02-02T20:31:51.053Z,100511.71
2019-02-02T20:34:39.441Z,100516.19
2019-02-02T20:37:00.638Z,100518.90
2019-02-02T20:39:37.003Z,100526.16
2019-02-02T20:42:08.612Z,100526.16
2019-02-02T20:44:38.965Z,100534.12
2019-02-02T20:47:09.370Z,100539.66
2019-02-02T20:49:50.898Z,100541.69
2019-02-02T20:52:23.325Z,100548.99
2019-02-02T20:55:03.677Z,100557.33
2019-02-02T20:57:40.868Z,100567.42
2019-02-02T21:00:14.756Z,100570.70
2019-02-02T21:02:47.247Z,100576.25
2019-02-02T21:05:31.829Z,100573.73
2019-02-02T21:08:08.418Z,100573.23
2019-02-02T21:10:47.499Z,100581.22
2019-02-02T21:13:19.933Z,100584.12
2019-02-02T21:15:50.584Z,100592.45
2019-02-02T21:18:21.510Z,100597.51
2019-02-02T21:21:06.493Z,100619.16
2019-02-02T21:23:41.866Z,100620.23
2019-02-02T21:26:11.712Z,100629.14
2019-02-02T21:28:51.091Z,100645.28
2019-02-02T21:31:26.856Z,100646.13
2019-02-02T21:34:00.272Z,100645.74
2019-02-02T21:36:31.141Z,100658.36
2019-02-02T21:39:01.746Z,100658.94
2019-02-02T21:41:35.429Z,100665.17
2019-02-02T21:44:14.172Z,100663.91
2019-02-02T21:47:01.531Z,100672.36
2019-02-02T21:49:32.476Z,100675.27
2019-02-02T21:52:06.026Z,100682.04
2019-02-02T21:54:38.294Z,100689.23
2019-02-02T21:57:08.663Z,100693.13
2019-02-02T21:59:40.330Z,100698.45
2019-02-02T22:02:17.967Z,100698.45
2019-02-02T22:04:52.740Z,100710.50
2019-02-02T22:07:27.123Z,100713.79
2019-02-02T22:09:57.391Z,100716.81
2019-02-02T22:12:27.759Z,100713.03
2019-02-02T22:15:02.754Z,100722.36
2019-02-02T22:17:38.353Z,100723.89
2019-02-02T22:20:11.558Z,100734.78
2019-02-02T22:22:47.857Z,100741.55
2019-02-02T22:25:21.690Z,100744.58
2019-02-02T22:28:20.834Z,100751.45
2019-02-02T22:30:52.530Z,100757.67
2019-02-02T22:33:09.529Z,100760.58
2019-02-02T22:35:40.294Z,100760.38
2019-02-02T22:38:10.977Z,100769.21
2019-02-02T22:40:47.655Z,100770.27
2019-02-02T22:43:35.564Z,100775.31
2019-02-02T22:46:09.806Z,100782.89
2019-02-02T22:48:51.076Z,100793.28
2019-02-02T22:51:28.968Z,100801.61
2019-02-02T22:54:24.616Z,100802.78
2019-02-02T22:56:59.119Z,100803.66
2019-02-02T22:59:40.135Z,100808.71
2019-02-02T23:02:15.154Z,100811.33
2019-02-02T23:05:06.724Z,100821.33
2019-02-02T23:08:11.373Z,100825.49
2019-02-02T23:11:25.762Z,100833.45
2019-02-02T23:14:52.684Z,100839.25
2019-02-02T23:17:22.996Z,100848.00
2019-02-02T23:20:03.467Z,100863.14
2019-02-02T23:22:35.472Z,100865.58
2019-02-02T23:25:12.791Z,100866.63
2019-02-02T23:27:49.510Z,100867.59
2019-02-02T23:30:28.008Z,100877.19
2019-02-02T23:32:53.612Z,100887.41
2019-02-02T23:35:24.250Z,100892.07
2019-02-02T23:37:55.506Z,100884.50
2019-02-02T23:40:27.506Z,100885.26
2019-02-02T23:43:01.938Z,100890.30
2019-02-02T23:45:40.725Z,100892.33
2019-02-02T23:48:10.307Z,100895.64
2019-02-02T23:50:56.619Z,100894.76
2019-02-02T23:53:13.230Z,100888.08
2019-02-02T23:55:43.804Z,100892.23
2019-02-02T23:58:17.947Z,100881.94
